Flight Track Log - Related Links

Times and Time Zones

All times are in EDT time to prevent confusion due to time zone crossing. See the SWA494 flight status page for this flight to view local times or setup timezone preferences in your user account.

Time Position Orientation Groundspeed Altitude Reporting Facility
EDT Latitude Longitude Course Direction KTS MPH feet Rate Location/Type
Wed 11:36:17 AM 34.1772 -118.3647 236° Southwest 162 186 2,100  Level Los Angeles Center
Wed 11:36:42 AM 34.1667 -118.3833 236° Southwest 200 230 3,700 3,194 Climbing Southern California TRACON
Wed 11:38:21 AM 34.2289 -118.4617 314° West 249 287 8,700 3,317 Climbing Los Angeles Center
Wed 11:39:23 AM 34.2950 -118.5061 331° Northwest 270 311 12,600 4,113 Climbing Los Angeles Center
Wed 11:40:25 AM 34.3750 -118.5622 330° Northwest 327 376 17,200 4,224 Climbing Los Angeles Center
Wed 11:41:28 AM 34.4711 -118.6278 331° Northwest 333 383 21,400 3,484 Climbing Los Angeles Center
Wed 11:42:29 AM 34.5569 -118.6897 329° Northwest 356 410 24,400 2,724 Climbing Los Angeles Center
Wed 11:44:33 AM 34.7411 -118.8189 330° Northwest 385 443 29,800 2,484 Climbing Los Angeles Center
Wed 11:45:35 AM 34.8372 -118.8892 329° Northwest 399 459 32,100 2,323 Climbing Los Angeles Center
Wed 11:46:37 AM 34.9481 -118.9825 325° Northwest 406 467 34,600 1,887 Climbing Los Angeles Center
Wed 11:47:39 AM 35.0239 -119.0861 312° West 414 476 36,000 677 Climbing Los Angeles Center
Wed 11:48:41 AM 35.0831 -119.2025 302° West 409 471 36,000  Level Los Angeles Center
Wed 11:49:43 AM 35.1425 -119.3197 302° West 408 470 36,000  Level Los Angeles Center
Wed 11:50:45 AM 35.2031 -119.4358 303° West 406 467 36,000  Level Los Angeles Center
Wed 11:51:47 AM 35.2597 -119.5519 301° West 401 461 36,000  Level Los Angeles Center
Wed 11:52:49 AM 35.3322 -119.6928 302° West 411 473 36,000  Level Los Angeles Center
Wed 11:53:51 AM 35.3900 -119.8069 302° West 402 463 36,000  Level Los Angeles Center
Wed 11:54:24 AM 35.4247 -119.8758 302° West 404 465 36,000  Level Oakland Center
Wed 11:55:26 AM 35.4836 -119.9931 302° West 407 468 36,000  Level Oakland Center
Wed 11:56:27 AM 35.5411 -120.1103 301° West 405 466 36,000  Level Oakland Center
Wed 11:57:29 AM 35.5994 -120.2275 301° West 407 468 36,000  Level Oakland Center
Wed 11:58:30 AM 35.6567 -120.3456 301° West 406 467 36,000  Level Oakland Center
Wed 11:59:32 AM 35.7186 -120.4600 304° West 406 467 36,000  Level Oakland Center
Wed 12:00:33 PM 35.8136 -120.5789 315° West 406 467 36,000  Level Oakland Center
Wed 12:01:35 PM 35.8917 -120.6797 314° West 407 468 36,000 -195 Level Oakland Center
Wed 12:02:36 PM 35.9703 -120.7806 314° West 408 470 35,600 -1,659 Descending Oakland Center
Wed 12:03:38 PM 36.0494 -120.8825 314° West 410 472 32,600 -2,683 Descending Oakland Center
Wed 12:04:39 PM 36.1278 -120.9847 314° West 410 472 30,100 -2,341 Descending Oakland Center
Wed 12:05:41 PM 36.2008 -121.0819 313° West 389 448 27,800 -2,195 Descending Oakland Center
Wed 12:06:42 PM 36.2708 -121.1742 313° West 370 426 25,600 -2,066 Descending Oakland Center
Wed 12:07:43 PM 36.3383 -121.2631 313° West 355 409 23,600 -2,244 Descending Oakland Center
Wed 12:08:45 PM 36.4175 -121.3653 314° West 342 394 21,000 -2,244 Descending Oakland Center
Wed 12:09:46 PM 36.4825 -121.4461 315° West 331 381 19,000 -1,805 Descending Oakland Center
Wed 12:10:48 PM 36.5658 -121.4769 343° North 313 360 17,300 -1,756 Descending Oakland Center
Wed 12:11:49 PM 36.6506 -121.4919 352° North 307 353 15,400 -1,854 Descending Oakland Center
Wed 12:12:51 PM 36.7317 -121.5072 351° North 296 341 13,500 -1,854 Descending Oakland Center
Wed 12:13:52 PM 36.8092 -121.5206 352° North 284 327 11,600 -1,721 Descending Oakland Center
Wed 12:14:53 PM 36.8944 -121.5386 350° North 269 310 10,000 -1,561 Descending Oakland Center
Wed 12:15:55 PM 36.9583 -121.5803 332° Northwest 264 304 8,400 -1,610 Descending Oakland Center
Wed 12:16:56 PM 37.0194 -121.6239 330° Northwest 254 292 6,700 -1,610 Descending Oakland Center
Wed 12:17:58 PM 37.0794 -121.6714 328° Northwest 254 292 5,100 -878 Descending Oakland Center
Wed 12:18:59 PM 37.1350 -121.7133 329° Northwest 244 281 4,900 -541 Descending Oakland Center
Wed 12:20:00 PM 37.1836 -121.7481 330° Northwest 218 251 4,000 -927 Descending Oakland Center
Wed 12:21:02 PM 37.2328 -121.7878 327° Northwest 211 243 3,000 -927 Descending Oakland Center
Wed 12:22:03 PM 37.2747 -121.8311 321° Northwest 203 234 2,100 -829 Descending Oakland Center
Wed 12:23:05 PM 37.3025 -121.8647 316° Northwest 163 188 1,300 -732 Descending Oakland Center
Wed 12:24:06 PM 37.3328 -121.8983 319° Northwest 135 155 600 9,122 Descending Oakland Center
Wed 12:25:08 PM 37.3594 -121.9256 321° Northwest 128 147 20,000 18,774 Climbing Oakland Center
Wed 12:27:00 PM 37.3627 -121.9291 North  Level Estimated

Login

Don't have an account? Register now (free) for customized features, flight alerts, and more!